Time;durP1;ratioP1;P1;durP2;ratioP2;P2;SDS_P1;SDS_P2;PMS_P1;PMS_P2;Temp;Humidity;BMP_temperature;BMP_pressure;BME280_temperature;BME280_humidity;BME280_pressure;Samples;Min_cycle;Max_cycle;Signal;HPM_P1;HPM_P2
2023/08/12 00:01:37;;;;;;;8.20;7.40;;;;;;;29.72;57.93;100776.13;5057906;28;68816;-39
2023/08/12 00:04:08;;;;;;;15.85;9.13;;;;;;;29.81;61.20;100780.25;5058233;28;65100;-38
2023/08/12 00:06:39;;;;;;;12.20;9.15;;;;;;;29.93;63.65;100772.28;5056763;28;69382;-38
2023/08/12 00:09:11;;;;;;;21.35;9.82;;;;;;;30.02;65.40;100789.06;5055016;28;66612;-38
2023/08/12 00:11:42;;;;;;;12.52;8.90;;;;;;;30.10;66.61;100802.34;5055517;28;70327;-39
2023/08/12 00:14:13;;;;;;;11.88;9.48;;;;;;;30.18;65.68;100802.09;5055384;28;65941;-40
2023/08/12 00:16:43;;;;;;;10.63;9.32;;;;;;;30.23;67.46;100796.06;5054011;28;69736;-38
2023/08/12 00:19:14;;;;;;;11.70;9.40;;;;;;;30.28;68.51;100794.38;5054614;28;67188;-37
2023/08/12 00:21:45;;;;;;;12.07;9.02;;;;;;;30.27;67.13;100790.00;5057178;28;70026;-36
2023/08/12 00:24:16;;;;;;;13.35;8.98;;;;;;;30.42;68.41;100805.94;5055936;28;65549;-39
2023/08/12 00:26:47;;;;;;;10.60;8.90;;;;;;;30.40;66.74;100799.91;5058044;28;70390;-37
2023/08/12 00:29:17;;;;;;;23.17;9.70;;;;;;;30.54;68.78;100822.28;5057215;28;66172;-36
2023/08/12 00:31:48;;;;;;;15.07;9.18;;;;;;;30.43;69.10;100810.28;5058777;28;70184;-39
2023/08/12 00:34:19;;;;;;;14.13;9.25;;;;;;;30.63;69.19;100845.31;5057928;28;66703;-37
2023/08/12 00:36:49;;;;;;;16.38;9.40;;;;;;;30.65;69.81;100843.25;5051858;28;70127;-38
2023/08/12 00:39:20;;;;;;;15.75;9.02;;;;;;;30.26;69.63;100782.94;5057340;28;67115;-39
2023/08/12 00:41:51;;;;;;;13.13;9.18;;;;;;;30.79;68.76;100846.69;5058367;28;70295;-36
2023/08/12 00:44:22;;;;;;;14.83;8.17;;;;;;;30.72;72.84;100852.13;5058242;28;65089;-37
2023/08/12 00:46:55;;;;;;;18.60;7.03;;;;;;;30.81;70.43;100847.28;5055240;28;69736;-37
2023/08/12 00:49:28;;;;;;;11.37;6.00;;;;;;;30.83;71.74;100860.63;5060062;28;66190;-37
2023/08/12 00:52:01;;;;;;;5.80;5.20;;;;;;;30.86;73.17;100871.00;5059357;28;43044;-35
2023/08/12 00:54:32;;;;;;;12.43;6.17;;;;;;;30.80;72.58;100852.94;5057367;28;66803;-37
2023/08/12 00:57:04;;;;;;;12.80;5.90;;;;;;;30.86;75.38;100862.91;5049832;28;70140;-38
2023/08/12 00:59:39;;;;;;;15.63;5.72;;;;;;;30.98;74.56;100873.84;5055072;28;65332;-37
2023/08/12 01:02:12;;;;;;;17.67;6.10;;;;;;;30.50;75.06;100799.41;5047370;28;70896;-37
2023/08/12 01:04:43;;;;;;;10.73;5.00;;;;;;;31.03;72.10;100868.59;5039941;28;65230;-37
2023/08/12 01:07:13;;;;;;;11.50;4.75;;;;;;;31.03;74.21;100874.81;5054843;28;70203;-38
2023/08/12 01:09:44;;;;;;;12.73;5.15;;;;;;;30.80;73.11;100834.00;5055621;28;65164;-38
2023/08/12 01:12:29;;;;;;;9.80;4.85;;;;;;;31.03;74.26;100879.41;5053204;28;70177;-37
2023/08/12 01:15:17;;;;;;;11.60;5.10;;;;;;;30.92;74.15;100852.03;5052926;28;65976;-38
2023/08/12 01:17:52;;;;;;;12.65;4.65;;;;;;;31.04;71.57;100848.59;5052945;28;70776;-38
2023/08/12 01:20:26;;;;;;;7.53;4.65;;;;;;;31.21;71.60;100870.53;5053165;28;65846;-38
2023/08/12 01:23:09;;;;;;;11.15;4.90;;;;;;;30.93;73.45;100842.00;5068754;27;69217;-38
2023/08/12 01:25:40;;;;;;;7.03;4.03;;;;;;;31.19;73.26;100878.03;5051304;28;66461;-38
2023/08/12 01:28:11;;;;;;;6.57;4.43;;;;;;;31.18;72.52;100871.78;5053976;28;70269;-37
2023/08/12 01:30:59;;;;;;;6.90;4.35;;;;;;;31.11;73.19;100861.00;5051465;28;65537;-37
2023/08/12 01:33:42;;;;;;;4.78;4.03;;;;;;;31.24;72.76;100868.19;5051614;28;69472;-37
2023/08/12 01:36:17;;;;;;;6.32;4.38;;;;;;;30.68;72.72;100764.28;5069388;27;66272;-37
2023/08/12 01:38:51;;;;;;;5.70;4.00;;;;;;;31.29;72.42;100868.34;5049692;28;69855;-36
2023/08/12 01:41:24;;;;;;;9.68;4.32;;;;;;;30.37;72.15;100710.19;5054436;28;66097;-39
2023/08/12 01:43:55;;;;;;;14.65;4.07;;;;;;;31.33;72.53;100871.44;5054216;28;70307;-37
2023/08/12 01:46:26;;;;;;;6.15;4.35;;;;;;;31.35;71.56;100867.44;5057640;28;65991;-37
2023/08/12 01:48:57;;;;;;;7.13;3.47;;;;;;;31.31;71.53;100835.59;5054161;28;69902;-36
2023/08/12 01:51:30;;;;;;;9.57;4.18;;;;;;;31.12;70.18;100807.63;5057264;28;65759;-37
2023/08/12 01:54:00;;;;;;;;;;;;;;;31.16;71.53;100847.63;5061001;28;69528;-37
2023/08/12 01:56:30;;;;;;;5.80;3.55;;;;;;;31.55;68.57;100848.28;5061084;28;66080;-39
2023/08/12 01:59:01;;;;;;;6.82;3.70;;;;;;;31.19;67.83;100775.91;5069310;28;69838;-38
2023/08/12 02:01:32;;;;;;;5.40;3.13;;;;;;;31.64;67.66;100848.81;5057272;28;64434;-38
2023/08/12 02:04:03;;;;;;;8.07;2.80;;;;;;;31.58;67.25;100828.84;5051442;28;70414;-37
2023/08/12 02:06:33;;;;;;;5.38;3.15;;;;;;;31.76;67.07;100847.03;5062037;28;66105;-37
2023/08/12 02:09:04;;;;;;;3.63;3.30;;;;;;;31.77;67.21;100842.41;5058498;28;69082;-38
2023/08/12 02:11:35;;;;;;;6.78;3.10;;;;;;;31.72;66.93;100823.28;5061040;28;65928;-38
2023/08/12 02:14:06;;;;;;;5.40;3.30;;;;;;;31.85;66.74;100842.13;5060204;28;69302;-36
2023/08/12 02:16:37;;;;;;;6.18;3.45;;;;;;;31.88;66.74;100849.78;5059856;28;66818;-40
2023/08/12 02:19:07;;;;;;;7.25;2.80;;;;;;;31.78;66.84;100814.22;5056956;28;69421;-37
2023/08/12 02:21:42;;;;;;;3.45;3.15;;;;;;;31.93;66.78;100824.69;5058876;28;65300;-37
2023/08/12 02:24:12;;;;;;;;;;;;;;;31.59;68.00;100825.09;5045276;28;68961;-37
2023/08/12 02:26:43;;;;;;;3.58;2.97;;;;;;;31.95;66.84;100823.41;5060248;28;66025;-39
2023/08/12 02:29:15;;;;;;;;;;;;;;;31.63;68.00;100830.06;5051548;28;69824;-38
2023/08/12 02:31:46;;;;;;;3.92;3.15;;;;;;;31.99;66.72;100823.81;5051627;28;66304;-38
2023/08/12 02:34:17;;;;;;;7.15;2.67;;;;;;;31.89;66.53;100797.19;5060411;28;70608;-38
2023/08/12 02:36:48;;;;;;;3.83;3.20;;;;;;;32.05;66.56;100822.88;5058832;28;65913;-39
2023/08/12 02:39:18;;;;;;;5.07;2.92;;;;;;;32.10;66.32;100819.50;5046345;28;69653;-38
2023/08/12 02:41:49;;;;;;;6.60;3.53;;;;;;;32.13;66.44;100813.59;5054109;28;66283;-38
2023/08/12 02:44:20;;;;;;;3.58;3.28;;;;;;;32.12;66.34;100810.03;5056314;28;70254;-37
2023/08/12 02:46:51;;;;;;;3.53;3.10;;;;;;;32.15;66.33;100812.31;5054252;28;66915;-38
2023/08/12 02:49:22;;;;;;;4.72;2.97;;;;;;;32.20;66.36;100817.03;5051571;28;70427;-39
2023/08/12 02:51:53;;;;;;;3.97;3.33;;;;;;;32.20;66.17;100800.75;5055497;28;66539;-38
2023/08/12 02:54:52;;;;;;;3.33;3.03;;;;;;;32.12;66.48;100806.50;5057603;28;68221;-38
2023/08/12 02:57:45;;;;;;;4.18;3.10;;;;;;;32.15;66.18;100784.31;5045676;28;65305;-39
2023/08/12 03:00:17;;;;;;;4.13;3.15;;;;;;;32.23;66.28;100775.84;5041742;28;70103;-37
2023/08/12 03:02:47;;;;;;;4.07;2.95;;;;;;;32.33;66.09;100792.41;5052711;28;66433;-37
2023/08/12 03:05:18;;;;;;;2.80;2.58;;;;;;;32.30;66.15;100775.78;5039304;28;70610;-38
2023/08/12 03:07:51;;;;;;;3.40;2.53;;;;;;;32.37;65.99;100788.16;5068821;28;66165;-39
2023/08/12 03:10:22;;;;;;;2.92;2.63;;;;;;;32.41;65.83;100794.78;5057758;28;70037;-37
2023/08/12 03:12:53;;;;;;;2.95;2.70;;;;;;;32.43;65.85;100791.81;5060494;28;65366;-37
2023/08/12 03:15:24;;;;;;;8.57;2.90;;;;;;;32.43;65.92;100784.53;5058805;28;69334;-37
2023/08/12 03:17:57;;;;;;;3.47;2.60;;;;;;;32.37;65.88;100760.19;5059813;28;66369;-38
2023/08/12 03:20:28;;;;;;;3.88;3.40;;;;;;;32.51;65.74;100782.56;5058049;28;70401;-38
2023/08/12 03:23:00;;;;;;;3.17;2.88;;;;;;;32.47;65.61;100777.59;5059787;28;66809;-37
2023/08/12 03:25:31;;;;;;;3.47;2.80;;;;;;;32.54;65.80;100777.50;5053276;28;70672;-38
2023/08/12 03:28:02;;;;;;;7.43;2.83;;;;;;;32.57;65.64;100787.91;5058520;28;66735;-38
2023/08/12 03:30:33;;;;;;;3.53;3.23;;;;;;;32.57;65.58;100778.91;5052727;28;69805;-37
2023/08/12 03:33:05;;;;;;;7.90;2.70;;;;;;;32.59;65.62;100779.50;5052766;28;66115;-38
2023/08/12 03:35:36;;;;;;;3.95;3.30;;;;;;;32.62;65.61;100781.75;5055126;28;70916;-38
2023/08/12 03:38:07;;;;;;;5.85;2.55;;;;;;;32.46;66.95;100778.66;5048294;28;66573;-38
2023/08/12 03:40:40;;;;;;;3.80;2.53;;;;;;;32.36;67.87;100766.69;5046153;28;70254;-38
2023/08/12 03:43:14;;;;;;;3.97;2.47;;;;;;;32.27;68.60;100767.03;5052524;28;66855;-38
2023/08/12 03:45:47;;;;;;;2.92;2.58;;;;;;;32.26;68.57;100775.38;5049790;28;69293;-38
2023/08/12 03:48:21;;;;;;;5.32;2.38;;;;;;;32.16;69.29;100754.25;5056801;28;66611;-38
2023/08/12 03:50:56;;;;;;;2.55;2.33;;;;;;;32.19;69.09;100766.53;5052090;28;69979;-38
2023/08/12 03:53:30;;;;;;;3.88;2.35;;;;;;;32.15;69.49;100768.03;5050019;28;65949;-39
2023/08/12 03:56:02;;;;;;;5.68;2.13;;;;;;;32.13;69.57;100772.91;5055028;28;69518;-38
2023/08/12 03:58:33;;;;;;;;;;;;;;;31.93;70.49;100771.28;5056362;28;66000;-39
2023/08/12 04:01:05;;;;;;;3.05;2.38;;;;;;;32.02;70.01;100756.34;5053970;28;70363;-40
2023/08/12 04:03:37;;;;;;;4.97;2.40;;;;;;;32.01;69.52;100749.28;5057457;28;67286;-41
2023/08/12 04:06:08;;;;;;;2.67;2.00;;;;;;;32.17;69.69;100761.31;5055457;28;69832;-38
2023/08/12 04:08:39;;;;;;;3.38;2.13;;;;;;;32.13;69.42;100748.47;5054007;28;65449;-39
2023/08/12 04:11:10;;;;;;;2.60;2.00;;;;;;;31.91;67.25;100727.28;5070871;27;69889;-37
2023/08/12 04:13:42;;;;;;;2.25;1.80;;;;;;;31.88;65.35;100749.41;5050049;28;65558;-39
2023/08/12 04:16:14;;;;;;;2.67;1.75;;;;;;;31.78;63.82;100735.56;5053410;28;70518;-38
2023/08/12 04:18:44;;;;;;;2.15;1.92;;;;;;;31.70;62.69;100735.91;5054471;28;66473;-40
2023/08/12 04:21:15;;;;;;;6.13;1.70;;;;;;;31.66;61.78;100742.84;5053132;28;69543;-40
2023/08/12 04:23:46;;;;;;;2.47;1.73;;;;;;;31.56;60.86;100727.94;5055863;28;66550;-40
2023/08/12 04:26:18;;;;;;;10.93;1.80;;;;;;;31.49;59.57;100732.63;5049580;28;69911;-39
2023/08/12 04:28:48;;;;;;;7.53;1.75;;;;;;;31.37;59.10;100713.59;5050267;28;66736;-40
2023/08/12 04:31:19;;;;;;;7.70;2.00;;;;;;;31.68;60.26;100730.72;5052771;28;70095;-39
2023/08/12 04:33:52;;;;;;;5.55;2.15;;;;;;;31.71;59.90;100719.41;5054219;28;66230;-39
2023/08/12 04:36:25;;;;;;;7.43;2.00;;;;;;;31.71;59.06;100722.13;5055860;28;69812;-39
2023/08/12 04:38:56;;;;;;;4.20;2.07;;;;;;;31.55;58.19;100687.50;5048825;28;65938;-39
2023/08/12 04:41:29;;;;;;;3.25;2.05;;;;;;;31.55;57.75;100693.75;5052484;28;68864;-39
2023/08/12 04:44:00;;;;;;;3.10;1.58;;;;;;;31.69;56.93;100699.81;5040156;28;66037;-40
2023/08/12 04:46:32;;;;;;;1.92;1.70;;;;;;;31.63;56.43;100689.06;5043633;28;70500;-40
2023/08/12 04:49:04;;;;;;;3.15;1.73;;;;;;;31.65;56.09;100695.94;5051387;28;66130;-40
2023/08/12 04:51:35;;;;;;;2.10;1.53;;;;;;;31.38;55.15;100657.50;5053959;28;69608;-40
2023/08/12 04:54:07;;;;;;;2.55;1.58;;;;;;;31.31;54.68;100626.91;5052360;28;67320;-39
2023/08/12 04:56:37;;;;;;;2.28;1.65;;;;;;;31.59;54.70;100673.28;5054823;28;69783;-43
2023/08/12 04:59:10;;;;;;;5.03;1.52;;;;;;;31.56;54.43;100673.69;5054587;28;65230;-40
2023/08/12 05:01:41;;;;;;;11.88;1.80;;;;;;;31.60;54.33;100668.66;5072503;27;70854;-42
2023/08/12 05:04:31;;;;;;;6.88;1.73;;;;;;;31.43;53.61;100641.38;5054161;28;66576;-41
2023/08/12 05:07:02;;;;;;;2.33;1.73;;;;;;;31.53;53.34;100652.47;5053932;28;70484;-39
2023/08/12 05:09:34;;;;;;;14.27;2.00;;;;;;;31.57;53.38;100645.56;5054491;28;66248;-39
2023/08/12 05:12:05;;;;;;;18.23;1.90;;;;;;;31.56;52.84;100657.44;5051018;28;69054;-38
2023/08/12 05:14:36;;;;;;;7.95;1.85;;;;;;;31.53;52.51;100652.47;5055251;28;65569;-39
2023/08/12 05:17:08;;;;;;;9.02;2.05;;;;;;;31.44;52.62;100632.19;5054518;28;69392;-40
2023/08/12 05:19:39;;;;;;;6.88;2.33;;;;;;;31.54;52.36;100645.19;5043552;28;66544;-39
2023/08/12 05:22:11;;;;;;;7.88;2.45;;;;;;;31.52;51.77;100645.41;5048606;28;70409;-41
2023/08/12 05:24:42;;;;;;;11.82;2.40;;;;;;;31.38;51.45;100611.44;5047025;28;65512;-40
2023/08/12 05:27:13;;;;;;;11.88;1.88;;;;;;;31.38;51.47;100614.13;5044618;28;70226;-40
2023/08/12 05:29:43;;;;;;;7.57;2.58;;;;;;;31.39;50.82;100613.88;5051157;28;66517;-40
2023/08/12 05:32:14;;;;;;;6.30;2.40;;;;;;;31.51;50.92;100634.78;5051272;28;70700;-39
2023/08/12 05:34:45;;;;;;;4.53;2.25;;;;;;;31.50;50.75;100619.59;5048218;28;66348;-39
2023/08/12 05:37:16;;;;;;;4.72;2.50;;;;;;;31.47;50.22;100611.91;5044928;28;70474;-40
2023/08/12 05:39:46;;;;;;;11.45;2.95;;;;;;;31.49;49.82;100626.91;5051476;28;65922;-40
2023/08/12 05:42:17;;;;;;;2.85;2.25;;;;;;;31.38;50.11;100595.97;5051996;28;69798;-40
2023/08/12 05:44:47;;;;;;;7.78;2.80;;;;;;;31.39;49.69;100588.66;5053516;28;66502;-39
2023/08/12 05:47:18;;;;;;;4.13;2.40;;;;;;;31.55;49.77;100596.16;5045112;28;69365;-40
2023/08/12 05:49:49;;;;;;;7.55;2.53;;;;;;;31.56;49.59;100597.78;5047044;28;67872;-40
2023/08/12 05:52:20;;;;;;;5.32;2.40;;;;;;;31.52;49.36;100580.34;5058236;28;70400;-41
2023/08/12 05:54:51;;;;;;;4.82;2.05;;;;;;;31.60;49.15;100584.63;5048241;28;65344;-38
2023/08/12 05:57:22;;;;;;;2.63;2.30;;;;;;;31.59;48.93;100586.50;5042461;28;68954;-39
2023/08/12 05:59:55;;;;;;;8.60;2.33;;;;;;;31.60;48.80;100580.03;5048051;28;66502;-39
2023/08/12 06:02:26;;;;;;;3.17;2.88;;;;;;;31.60;48.41;100566.47;5043439;28;70352;-39
2023/08/12 06:04:57;;;;;;;3.10;2.60;;;;;;;31.56;47.92;100565.25;5056053;28;66378;-39
2023/08/12 06:07:28;;;;;;;2.58;2.38;;;;;;;31.51;48.37;100543.47;5052037;28;69819;-39
2023/08/12 06:10:00;;;;;;;2.77;2.57;;;;;;;31.51;48.02;100540.75;5056291;28;66299;-39
2023/08/12 06:12:31;;;;;;;3.10;2.80;;;;;;;31.20;47.77;100494.91;5051425;28;70169;-39
2023/08/12 06:15:02;;;;;;;3.08;2.78;;;;;;;31.23;47.71;100489.03;5052476;28;66404;-38
2023/08/12 06:17:32;;;;;;;8.23;2.63;;;;;;;31.57;47.62;100541.72;5053878;28;69539;-38
2023/08/12 06:20:03;;;;;;;3.25;2.45;;;;;;;31.61;47.28;100535.56;5052385;28;65986;-39
2023/08/12 06:22:34;;;;;;;3.58;2.85;;;;;;;31.62;47.53;100530.97;5052311;28;69619;-39
2023/08/12 06:25:26;;;;;;;4.85;2.90;;;;;;;31.67;47.37;100538.41;5062635;28;66224;-39
2023/08/12 06:27:58;;;;;;;3.60;2.30;;;;;;;31.53;47.15;100511.50;5050821;28;69711;-38
2023/08/12 06:30:29;;;;;;;2.70;2.50;;;;;;;31.58;47.15;100519.78;5048527;28;66538;-39
2023/08/12 06:32:59;;;;;;;2.95;2.65;;;;;;;31.70;47.22;100521.66;5056973;28;69197;-39
2023/08/12 06:35:30;;;;;;;6.20;2.83;;;;;;;31.67;46.76;100532.97;5045035;28;66305;-40
2023/08/12 06:38:13;;;;;;;2.80;2.60;;;;;;;31.27;44.86;100452.28;5057189;28;70203;-39
2023/08/12 06:40:45;;;;;;;3.00;2.80;;;;;;;31.74;46.65;100512.03;5052557;28;66528;-38
2023/08/12 06:43:15;;;;;;;5.23;2.57;;;;;;;31.77;46.13;100506.13;5053504;28;70471;-40
2023/08/12 06:45:46;;;;;;;2.83;2.50;;;;;;;31.79;46.43;100504.00;5057269;28;65825;-39
2023/08/12 06:48:17;;;;;;;3.35;2.88;;;;;;;31.80;46.19;100506.47;5051707;28;70378;-41
2023/08/12 06:50:55;;;;;;;4.90;2.75;;;;;;;31.67;44.73;100489.59;5060634;28;66511;-39
2023/08/12 06:53:27;;;;;;;8.60;2.97;;;;;;;31.72;45.51;100470.75;5058134;28;70713;-39
2023/08/12 06:55:58;;;;;;;4.72;2.85;;;;;;;31.75;46.21;100472.97;5057285;28;66114;-39
2023/08/12 06:58:29;;;;;;;6.10;2.93;;;;;;;31.77;46.09;100481.72;5059179;28;70380;-40
2023/08/12 07:01:00;;;;;;;5.82;3.30;;;;;;;31.81;45.91;100486.41;5050669;28;66648;-39
2023/08/12 07:03:31;;;;;;;3.85;2.97;;;;;;;31.84;45.99;100474.25;5058671;28;70196;-38
2023/08/12 07:06:02;;;;;;;7.43;3.40;;;;;;;31.85;45.94;100481.34;5055809;28;66882;-39
2023/08/12 07:08:32;;;;;;;3.60;3.30;;;;;;;31.90;45.99;100483.34;5059861;28;70793;-39
2023/08/12 07:11:04;;;;;;;6.88;3.30;;;;;;;31.76;46.12;100445.63;5048903;28;66474;-40
2023/08/12 07:13:35;;;;;;;9.23;3.35;;;;;;;31.89;46.08;100458.09;5054627;28;69910;-41
2023/08/12 07:16:05;;;;;;;11.00;3.72;;;;;;;31.91;45.85;100464.16;5045331;28;66513;-40
2023/08/12 07:18:36;;;;;;;4.75;3.03;;;;;;;31.79;45.75;100438.91;5045730;28;70198;-39
2023/08/12 07:21:07;;;;;;;9.32;3.08;;;;;;;31.54;45.58;100385.75;5045762;28;66372;-39
2023/08/12 07:23:38;;;;;;;7.78;3.60;;;;;;;31.97;45.34;100435.25;5048827;28;70367;-40
2023/08/12 07:26:14;;;;;;;3.30;2.97;;;;;;;32.01;45.57;100439.97;5060245;28;65963;-40
2023/08/12 07:28:45;;;;;;;5.45;3.22;;;;;;;32.01;45.69;100442.69;5046267;28;70566;-39
2023/08/12 07:31:16;;;;;;;13.05;2.90;;;;;;;32.04;45.50;100434.06;5053130;28;66978;-38
2023/08/12 07:33:46;;;;;;;4.90;3.40;;;;;;;32.03;45.22;100435.13;5048797;28;70859;-39
2023/08/12 07:36:17;;;;;;;7.25;3.60;;;;;;;31.91;45.40;100419.91;5060695;28;66075;-39
2023/08/12 07:38:48;;;;;;;4.57;3.72;;;;;;;31.99;45.52;100433.97;5057078;28;70227;-39
2023/08/12 07:41:18;;;;;;;8.40;4.00;;;;;;;32.09;45.39;100443.38;5059525;28;67129;-38
2023/08/12 07:43:49;;;;;;;3.80;3.50;;;;;;;32.09;45.46;100427.09;5058181;28;69167;-38
2023/08/12 07:46:20;;;;;;;8.90;3.97;;;;;;;32.04;45.43;100419.69;5057139;28;66826;-38
2023/08/12 07:48:51;;;;;;;12.30;4.57;;;;;;;32.15;45.54;100428.84;5057865;28;69616;-38
2023/08/12 07:51:23;;;;;;;12.63;4.35;;;;;;;32.16;45.32;100420.47;5058398;28;66297;-39
2023/08/12 07:53:53;;;;;;;5.63;4.82;;;;;;;32.21;45.94;100415.16;5060734;28;69159;-41
2023/08/12 07:56:24;;;;;;;8.48;4.72;;;;;;;32.18;46.14;100403.94;5059431;28;65951;-39
2023/08/12 07:58:55;;;;;;;10.27;3.90;;;;;;;32.09;45.87;100372.81;5060436;28;71273;-39
2023/08/12 08:01:25;;;;;;;4.63;4.32;;;;;;;32.27;45.86;100387.03;5057761;28;66166;-39
2023/08/12 08:03:56;;;;;;;10.23;4.65;;;;;;;32.27;45.53;100392.47;5059663;28;70008;-40
2023/08/12 08:06:28;;;;;;;10.82;4.70;;;;;;;32.29;45.68;100381.38;5059414;28;67066;-38
2023/08/12 08:09:02;;;;;;;7.88;4.57;;;;;;;32.26;45.43;100371.00;5059444;28;70441;-39
2023/08/12 08:11:34;;;;;;;11.93;4.70;;;;;;;32.29;45.27;100384.09;5056378;28;66188;-38
2023/08/12 08:14:05;;;;;;;5.87;4.87;;;;;;;32.20;45.02;100363.81;5054896;28;70233;-40
2023/08/12 08:16:36;;;;;;;4.90;4.60;;;;;;;32.25;45.17;100375.59;5058335;28;67522;-40
2023/08/12 08:19:09;;;;;;;6.43;5.80;;;;;;;32.30;44.83;100374.88;5045281;27;69212;-39
2023/08/12 08:21:42;;;;;;;7.85;5.47;;;;;;;32.32;45.10;100359.19;5056651;28;66672;-38
2023/08/12 08:24:13;;;;;;;14.18;5.90;;;;;;;32.52;46.54;100358.75;5054864;28;69936;-40
2023/08/12 08:26:45;;;;;;;12.57;6.35;;;;;;;32.46;56.38;100349.72;5056689;28;66204;-41
2023/08/12 08:29:16;;;;;;;8.10;6.95;;;;;;;32.41;59.27;100324.31;5055133;28;69532;-39
2023/08/12 08:31:47;;;;;;;11.15;7.10;;;;;;;32.82;54.83;100338.63;5058867;28;66290;-39
2023/08/12 08:34:18;;;;;;;17.35;6.93;;;;;;;32.77;60.82;100333.94;5053996;28;70252;-39
2023/08/12 08:36:48;;;;;;;13.60;7.18;;;;;;;32.81;60.89;100336.97;5057963;28;65591;-39
2023/08/12 08:39:21;;;;;;;9.63;6.80;;;;;;;32.87;61.83;100353.09;5055789;28;70181;-39
2023/08/12 08:41:55;;;;;;;16.02;6.80;;;;;;;32.98;62.09;100369.59;5056910;28;67057;-40
2023/08/12 08:44:31;;;;;;;12.35;6.28;;;;;;;32.53;62.48;100275.41;5057167;28;69445;-39
2023/08/12 08:47:03;;;;;;;6.05;5.55;;;;;;;33.12;63.03;100351.91;5057246;28;66676;-40
2023/08/12 08:49:36;;;;;;;13.75;5.97;;;;;;;33.21;63.46;100342.28;5047297;28;70027;-39
2023/08/12 08:52:07;;;;;;;8.57;5.65;;;;;;;33.25;63.57;100351.56;5056070;28;66759;-39
2023/08/12 08:54:40;;;;;;;10.93;5.68;;;;;;;33.28;63.97;100353.78;5056425;28;69855;-38
2023/08/12 08:57:12;;;;;;;14.82;6.07;;;;;;;33.36;63.61;100350.63;5055966;28;66169;-40
2023/08/12 08:59:49;;;;;;;10.05;5.18;;;;;;;33.36;63.73;100339.75;5050059;28;68964;-39
2023/08/12 09:02:25;;;;;;;8.05;5.32;;;;;;;33.43;63.40;100349.63;5046087;28;65790;-40
2023/08/12 09:04:56;;;;;;;5.55;4.75;;;;;;;33.36;63.12;100318.03;5049453;28;69654;-39
2023/08/12 09:07:27;;;;;;;5.10;4.60;;;;;;;33.49;63.53;100338.59;5046638;28;65620;-40
2023/08/12 09:10:01;;;;;;;7.07;4.63;;;;;;;33.50;63.22;100325.81;5051898;28;71383;-40
2023/08/12 09:12:32;;;;;;;8.88;4.38;;;;;;;33.57;62.97;100326.47;5037549;28;65597;-38
2023/08/12 09:15:04;;;;;;;;;;;;;;;33.37;63.96;100352.28;5050935;28;69751;-38
2023/08/12 09:17:35;;;;;;;4.53;4.23;;;;;;;33.57;63.46;100367.25;5054256;28;65697;-38
2023/08/12 09:20:11;;;;;;;4.45;3.80;;;;;;;33.57;63.68;100379.00;5025082;28;69290;-39
2023/08/12 09:22:42;;;;;;;7.03;4.07;;;;;;;33.61;63.71;100384.75;5048577;28;66596;-40
2023/08/12 09:25:13;;;;;;;7.15;3.70;;;;;;;33.25;63.61;100332.53;5050710;28;71150;-38
2023/08/12 09:27:44;;;;;;;4.33;3.93;;;;;;;33.64;63.90;100378.78;5054469;28;66380;-38
2023/08/12 09:30:15;;;;;;;6.63;3.55;;;;;;;33.67;63.82;100382.91;5049860;28;69941;-39
2023/08/12 09:33:03;;;;;;;5.50;3.25;;;;;;;33.46;64.55;100354.56;5028460;28;65276;-38
2023/08/12 09:35:36;;;;;;;8.73;4.03;;;;;;;33.69;63.83;100373.44;5034715;28;70150;-39
2023/08/12 09:38:12;;;;;;;4.68;3.70;;;;;;;33.70;64.00;100372.34;5055014;28;65386;-41
2023/08/12 09:40:44;;;;;;;3.40;3.10;;;;;;;33.72;63.48;100381.09;5040221;28;70363;-39
2023/08/12 09:43:16;;;;;;;5.60;3.65;;;;;;;33.73;63.86;100387.34;5049376;28;66378;-40
2023/08/12 09:45:48;;;;;;;6.72;3.65;;;;;;;33.52;63.67;100342.72;5051890;28;70147;-39
2023/08/12 09:48:18;;;;;;;4.80;3.67;;;;;;;33.76;64.32;100392.28;5052525;28;66759;-39
2023/08/12 09:50:50;;;;;;;3.73;3.43;;;;;;;33.70;64.54;100372.34;5043884;28;69049;-40
2023/08/12 09:53:23;;;;;;;5.00;3.30;;;;;;;33.36;64.56;100328.91;5048952;28;66643;-40
2023/08/12 09:55:55;;;;;;;18.98;7.18;;;;;;;33.82;64.50;100402.13;5054675;28;69243;-40
2023/08/12 09:58:29;;;;;;;18.30;8.40;;;;;;;33.63;65.21;100366.28;5054283;28;66043;-40
2023/08/12 10:01:01;;;;;;;18.27;8.50;;;;;;;33.83;65.05;100397.56;5041855;28;69646;-39
2023/08/12 10:03:37;;;;;;;14.15;8.07;;;;;;;33.31;65.07;100304.34;5056370;28;65663;-40
2023/08/12 10:06:08;;;;;;;14.73;7.75;;;;;;;33.78;65.04;100380.06;5041030;28;69952;-38
2023/08/12 10:08:40;;;;;;;17.88;6.82;;;;;;;33.81;65.23;100387.72;5049436;28;65013;-40
2023/08/12 10:11:11;;;;;;;9.88;6.22;;;;;;;33.85;65.16;100387.22;5023500;28;69747;-39
2023/08/12 10:13:43;;;;;;;9.63;5.93;;;;;;;33.85;65.66;100395.38;5051782;28;66490;-39
2023/08/12 10:16:15;;;;;;;16.75;5.70;;;;;;;33.30;65.44;100327.19;5053961;28;69382;-39
2023/08/12 10:18:48;;;;;;;13.73;5.07;;;;;;;33.80;65.69;100405.13;5047307;28;66678;-42
2023/08/12 10:21:19;;;;;;;12.95;5.80;;;;;;;33.87;66.19;100409.56;5049177;28;70644;-41
2023/08/12 10:23:50;;;;;;;;;;;;;;;33.66;66.75;100419.34;5056042;28;66286;-39
2023/08/12 10:26:22;;;;;;;14.45;5.65;;;;;;;33.85;66.36;100433.47;5053043;28;70599;-40
2023/08/12 10:28:56;;;;;;;15.23;5.93;;;;;;;33.38;66.32;100367.53;5047675;28;66575;-39
2023/08/12 10:31:30;;;;;;;20.48;7.53;;;;;;;33.76;66.22;100431.19;5056534;28;70350;-39
2023/08/12 10:34:01;;;;;;;14.40;8.80;;;;;;;33.85;66.22;100455.22;5042965;28;65901;-40
2023/08/12 10:36:34;;;;;;;21.47;9.97;;;;;;;33.83;66.41;100468.28;5048224;28;70082;-39
2023/08/12 10:39:15;;;;;;;16.67;10.13;;;;;;;33.88;66.55;100465.59;5045728;28;66564;-40
2023/08/12 10:42:06;;;;;;;23.52;10.02;;;;;;;33.78;67.58;100439.09;5048101;28;70163;-39
2023/08/12 10:44:51;;;;;;;19.27;9.13;;;;;;;33.87;68.11;100442.22;5049807;28;66341;-42
2023/08/12 10:47:21;;;;;;;11.93;7.30;;;;;;;33.71;66.22;100412.09;5032486;28;69888;-39
2023/08/12 10:49:53;;;;;;;16.00;6.65;;;;;;;33.85;64.20;100434.31;5044002;28;65847;-40
2023/08/12 10:52:28;;;;;;;20.77;6.80;;;;;;;33.83;66.56;100432.91;5045228;28;70155;-38
2023/08/12 10:55:20;;;;;;;25.60;5.45;;;;;;;33.80;66.29;100440.50;5043402;28;66454;-41
2023/08/12 10:57:54;;;;;;;15.52;5.88;;;;;;;33.97;63.90;100434.19;5057850;28;69785;-40
2023/08/12 11:00:27;;;;;;;42.08;6.07;;;;;;;33.63;63.12;100366.28;5041388;28;66166;-38
2023/08/12 11:02:59;;;;;;;18.05;5.18;;;;;;;33.86;64.26;100448.75;5041324;28;69114;-40
2023/08/12 11:05:37;;;;;;;10.45;4.32;;;;;;;33.51;64.50;100409.03;5040726;28;65194;-40
2023/08/12 11:08:08;;;;;;;9.05;4.13;;;;;;;33.68;65.26;100450.63;5050458;28;69814;-41
2023/08/12 11:10:39;;;;;;;9.98;4.88;;;;;;;33.81;65.33;100477.50;5024666;28;65107;-40
2023/08/12 11:13:10;;;;;;;8.85;4.78;;;;;;;33.81;65.74;100482.94;5021270;28;68719;-41
2023/08/12 11:15:49;;;;;;;11.80;4.82;;;;;;;33.62;65.96;100461.72;5055968;27;65848;-42
2023/08/12 11:18:21;;;;;;;8.27;5.10;;;;;;;33.75;65.88;100478.50;5057138;28;69269;-45
2023/08/12 11:20:52;;;;;;;6.75;4.25;;;;;;;33.78;65.96;100498.94;5038839;28;66916;-41
2023/08/12 11:23:24;;;;;;;8.85;5.50;;;;;;;33.80;65.91;100513.94;5038097;28;70479;-38
2023/08/12 11:25:54;;;;;;;8.02;5.05;;;;;;;33.73;65.83;100510.56;5056198;28;65202;-39
2023/08/12 11:28:25;;;;;;;5.93;4.50;;;;;;;33.63;65.69;100493.25;5043512;28;69939;-40
2023/08/12 11:30:57;;;;;;;10.75;5.03;;;;;;;33.73;65.83;100518.72;5034363;28;65133;-40
2023/08/12 11:33:28;;;;;;;8.82;5.72;;;;;;;33.72;66.02;100519.00;5050055;28;70006;-38
2023/08/12 11:35:59;;;;;;;9.45;5.45;;;;;;;33.76;65.89;100526.38;5039224;28;65837;-38
2023/08/12 11:38:31;;;;;;;5.85;5.35;;;;;;;33.70;66.57;100521.94;5057178;28;70695;-40
2023/08/12 11:41:05;;;;;;;6.15;5.45;;;;;;;33.72;66.80;100508.94;5039176;28;66456;-40
2023/08/12 11:43:36;;;;;;;7.53;5.32;;;;;;;33.71;67.10;100509.16;5053794;28;69598;-40
2023/08/12 11:46:06;;;;;;;10.60;6.13;;;;;;;33.70;67.41;100518.41;5053422;28;65109;-39
2023/08/12 11:48:37;;;;;;;10.38;4.95;;;;;;;33.72;66.62;100517.09;5055266;28;69726;-39